createdAt,value
2022-11-05T00:19:36.808Z,7.14
2022-11-05T00:39:39.012Z,6.97
2022-11-05T00:59:40.946Z,7.24
2022-11-05T01:19:43.002Z,7.45
2022-11-05T01:39:44.763Z,7.64
2022-11-05T01:59:46.882Z,7.61
2022-11-05T02:19:48.510Z,7.64
2022-11-05T02:39:50.788Z,7.54
2022-11-05T02:59:52.187Z,7.63
2022-11-05T03:19:54.794Z,7.60
2022-11-05T03:39:56.441Z,7.42
2022-11-05T03:59:59.069Z,7.39
2022-11-05T04:20:00.808Z,7.24
2022-11-05T04:40:02.702Z,7.08
2022-11-05T05:00:07.872Z,7.13
2022-11-05T05:20:12.184Z,7.23
2022-11-05T05:40:14.054Z,7.22
2022-11-05T06:00:16.078Z,7.40
2022-11-05T06:20:17.564Z,7.46
2022-11-05T06:40:20.035Z,7.80
2022-11-05T07:00:21.642Z,8.19
2022-11-05T07:20:23.767Z,8.41
2022-11-05T07:40:25.337Z,8.58
2022-11-05T08:00:27.706Z,9.02
2022-11-05T08:20:29.396Z,9.32
2022-11-05T08:40:31.814Z,9.55
2022-11-05T09:00:33.233Z,10.05
2022-11-05T09:20:35.338Z,10.62
2022-11-05T09:40:36.965Z,10.29
2022-11-05T10:00:39.428Z,10.58
2022-11-05T10:20:41.082Z,10.64
2022-11-05T10:40:43.117Z,11.38
2022-11-05T11:00:45.079Z,11.42
2022-11-05T11:20:47.254Z,11.43
2022-11-05T11:40:48.870Z,11.48
2022-11-05T12:00:51.331Z,11.55
2022-11-05T12:20:57.944Z,11.60
2022-11-05T12:41:00.769Z,11.59
2022-11-05T13:01:02.794Z,11.64
2022-11-05T13:21:05.166Z,11.26
2022-11-05T13:41:06.962Z,11.10
2022-11-05T14:01:09.465Z,11.22
2022-11-05T14:21:11.053Z,11.16
2022-11-05T14:41:12.933Z,11.02
2022-11-05T15:01:14.406Z,10.95
2022-11-05T15:21:16.833Z,10.90
2022-11-05T15:41:18.399Z,10.60
2022-11-05T16:01:20.651Z,10.23
2022-11-05T16:21:22.169Z,10.29
2022-11-05T16:41:24.619Z,10.27
2022-11-05T17:01:26.336Z,10.16
2022-11-05T17:21:28.372Z,10.27
2022-11-05T17:41:30.200Z,10.19
2022-11-05T18:01:32.177Z,9.97
2022-11-05T18:21:33.662Z,9.74
2022-11-05T18:41:36.117Z,9.50
2022-11-05T19:01:37.898Z,9.15
2022-11-05T19:21:42.399Z,8.87
2022-11-05T19:41:44.456Z,8.87
2022-11-05T20:01:46.862Z,8.80
2022-11-05T20:21:48.638Z,8.75
2022-11-05T20:41:50.822Z,8.56
2022-11-05T21:01:52.744Z,8.23
2022-11-05T21:21:55.010Z,8.28
2022-11-05T21:41:56.854Z,8.11
2022-11-05T22:01:59.109Z,7.89
2022-11-05T22:22:01.075Z,7.75
2022-11-05T22:42:08.205Z,7.68
2022-11-05T23:02:10.529Z,7.52
2022-11-05T23:22:12.937Z,7.42
2022-11-05T23:42:14.966Z,7.36
